Time;durP1;ratioP1;P1;durP2;ratioP2;P2;SDS_P1;SDS_P2;PMS_P1;PMS_P2;Temp;Humidity;BMP_temperature;BMP_pressure;BME280_temperature;BME280_humidity;BME280_pressure;Samples;Min_cycle;Max_cycle;Signal;HPM_P1;HPM_P2
2022/07/01 00:00:38;;;;;;;11.02;7.47;;;;;;;15.29;94.99;101357.56;4975477;28;20026;-83
2022/07/01 00:03:04;;;;;;;14.07;7.75;;;;;;;15.09;95.34;101347.16;4975882;28;20026;-82
2022/07/01 00:05:30;;;;;;;13.88;8.25;;;;;;;15.22;96.82;101360.19;4977310;28;20023;-82
2022/07/01 00:07:56;;;;;;;12.35;7.65;;;;;;;15.12;96.85;101388.41;4976573;28;20061;-82
2022/07/01 00:10:21;;;;;;;11.48;8.02;;;;;;;15.08;97.49;101382.81;4991379;28;20026;-82
2022/07/01 00:12:47;;;;;;;13.75;8.40;;;;;;;15.15;98.53;101361.97;4975458;28;20030;-82
2022/07/01 00:15:12;;;;;;;11.15;8.48;;;;;;;15.14;97.68;101351.78;4974869;28;20029;-83
2022/07/01 00:17:38;;;;;;;12.65;8.95;;;;;;;15.14;97.35;101364.78;4976726;28;20022;-83
2022/07/01 00:20:04;;;;;;;13.05;8.88;;;;;;;15.03;97.73;101366.19;4975137;28;20556;-79
2022/07/01 00:22:29;;;;;;;12.60;8.70;;;;;;;15.09;99.02;101362.78;4995855;23;20490;-43
2022/07/01 00:24:54;;;;;;;14.43;9.10;;;;;;;15.10;98.36;101354.78;4973930;28;20025;-41
2022/07/01 00:27:20;;;;;;;13.23;9.23;;;;;;;15.27;98.46;101362.94;4974052;28;20031;-41
2022/07/01 00:29:45;;;;;;;11.10;8.45;;;;;;;15.31;97.40;101366.75;4974776;28;20362;-42
2022/07/01 00:32:11;;;;;;;12.70;9.25;;;;;;;15.21;97.90;101368.97;4974693;28;20377;-43
2022/07/01 00:34:36;;;;;;;14.00;9.13;;;;;;;15.23;98.52;101374.78;4974805;28;20106;-42
2022/07/01 00:37:02;;;;;;;11.93;9.18;;;;;;;15.30;98.66;101385.97;4974782;28;20109;-41
2022/07/01 00:39:30;;;;;;;16.17;9.55;;;;;;;15.17;97.91;101387.81;4989453;28;20034;-41
2022/07/01 00:41:59;;;;;;;14.40;9.50;;;;;;;15.21;98.48;101391.59;4974809;28;20031;-42
2022/07/01 00:44:25;;;;;;;13.82;9.13;;;;;;;15.21;99.15;101391.59;4978044;28;20462;-43
2022/07/01 00:46:51;;;;;;;13.85;9.40;;;;;;;15.10;99.89;101403.41;4978061;28;20037;-43
2022/07/01 00:49:16;;;;;;;14.02;9.63;;;;;;;15.03;99.29;101406.03;4978765;28;20077;-42
2022/07/01 00:51:42;;;;;;;14.40;9.95;;;;;;;14.95;99.65;101401.03;4978434;28;20030;-41
2022/07/01 00:54:08;;;;;;;15.38;9.90;;;;;;;14.89;100.00;101378.41;4978464;28;20027;-42
2022/07/01 00:56:33;;;;;;;15.07;10.70;;;;;;;15.20;99.68;101400.44;4978612;28;20114;-42
2022/07/01 00:58:59;;;;;;;17.65;11.38;;;;;;;15.16;100.00;101399.22;4978431;28;20023;-42
2022/07/01 01:01:24;;;;;;;17.23;12.48;;;;;;;14.89;100.00;101391.44;4978792;28;20496;-42
2022/07/01 01:03:49;;;;;;;18.38;12.40;;;;;;;14.98;100.00;101405.03;4978186;28;20018;-42
2022/07/01 01:06:15;;;;;;;21.23;13.65;;;;;;;14.90;100.00;101400.81;4979090;28;20081;-42
2022/07/01 01:08:41;;;;;;;22.15;13.65;;;;;;;14.86;100.00;101382.22;4978366;28;20109;-41
2022/07/01 01:11:07;;;;;;;21.13;13.93;;;;;;;14.88;100.00;101384.63;4978296;28;20031;-41
2022/07/01 01:13:33;;;;;;;24.70;14.60;;;;;;;14.87;100.00;101383.84;4978729;28;20033;-41
2022/07/01 01:15:59;;;;;;;22.17;15.10;;;;;;;14.82;100.00;101375.81;4978285;28;20031;-42
2022/07/01 01:18:24;;;;;;;24.98;16.23;;;;;;;14.81;100.00;101376.81;4976710;28;20026;-41
2022/07/01 01:20:52;;;;;;;26.83;15.50;;;;;;;14.84;100.00;101375.59;4977678;28;20461;-41
2022/07/01 01:23:17;;;;;;;26.35;17.08;;;;;;;14.73;100.00;101376.19;4977841;28;20102;-42
2022/07/01 01:25:43;;;;;;;27.35;16.92;;;;;;;14.75;100.00;101375.00;4977864;28;20031;-41
2022/07/01 01:28:10;;;;;;;30.45;18.13;;;;;;;14.80;100.00;101383.03;4978045;28;20046;-43
2022/07/01 01:30:35;;;;;;;24.10;16.83;;;;;;;14.75;100.00;101375.00;4978026;28;20466;-42
2022/07/01 01:33:01;;;;;;;27.15;18.05;;;;;;;14.68;100.00;101394.22;4978028;28;20030;-42
2022/07/01 01:35:26;;;;;;;26.98;17.73;;;;;;;14.55;100.00;101405.41;4977641;28;20465;-43
2022/07/01 01:37:51;;;;;;;28.67;18.23;;;;;;;14.58;100.00;101418.81;4977873;28;20058;-42
2022/07/01 01:40:17;;;;;;;26.63;18.25;;;;;;;14.61;100.00;101409.81;4977695;28;20446;-42
2022/07/01 01:42:43;;;;;;;35.95;19.15;;;;;;;14.49;100.00;101411.38;4977680;28;20046;-41
2022/07/01 01:45:10;;;;;;;29.35;18.48;;;;;;;14.59;100.00;101420.44;4977451;28;20106;-42
2022/07/01 01:47:36;;;;;;;30.25;19.05;;;;;;;14.50;100.00;101424.19;4960097;28;20397;-41
2022/07/01 01:50:01;;;;;;;27.63;18.98;;;;;;;14.69;100.00;101429.66;4977951;28;20110;-41
2022/07/01 01:52:26;;;;;;;26.48;18.70;;;;;;;14.56;100.00;101423.44;4976148;28;20381;-42
2022/07/01 01:54:52;;;;;;;31.10;20.13;;;;;;;14.63;100.00;101423.44;4976125;28;20031;-42
2022/07/01 01:57:17;;;;;;;28.70;17.85;;;;;;;14.57;100.00;101419.03;4977222;28;20466;-42
2022/07/01 01:59:42;;;;;;;27.90;19.30;;;;;;;14.62;100.00;101417.44;4977186;28;20031;-43
2022/07/01 02:02:08;;;;;;;26.50;18.20;;;;;;;14.55;100.00;101414.00;4977449;28;20026;-42
2022/07/01 02:04:33;;;;;;;28.88;18.63;;;;;;;14.60;100.00;101429.81;4975822;28;20027;-41
2022/07/01 02:06:59;;;;;;;28.17;18.63;;;;;;;14.64;100.00;101425.84;4977107;28;20027;-42
2022/07/01 02:09:25;;;;;;;26.90;18.63;;;;;;;14.63;100.00;101424.22;4977071;28;20085;-41
2022/07/01 02:11:50;;;;;;;29.88;18.58;;;;;;;14.38;100.00;101423.13;4977248;28;20023;-42
2022/07/01 02:14:16;;;;;;;27.98;17.75;;;;;;;14.47;100.00;101431.56;4977152;28;20023;-41
2022/07/01 02:16:41;;;;;;;27.52;18.20;;;;;;;14.50;100.00;101423.38;4976834;28;20027;-42
2022/07/01 02:19:06;;;;;;;26.27;17.58;;;;;;;14.57;100.00;101424.22;4977400;28;20034;-42
2022/07/01 02:21:32;;;;;;;24.95;17.88;;;;;;;14.49;100.00;101419.97;4976792;28;20393;-42
2022/07/01 02:23:57;;;;;;;26.98;17.27;;;;;;;14.24;100.00;101427.50;4976731;28;20378;-41
2022/07/01 02:26:22;;;;;;;27.80;17.48;;;;;;;14.26;100.00;101422.91;4976934;28;20026;-42
2022/07/01 02:28:48;;;;;;;26.73;18.23;;;;;;;14.33;100.00;101417.75;4976959;28;20073;-42
2022/07/01 02:31:13;;;;;;;26.25;17.85;;;;;;;14.26;100.00;101416.91;4976668;28;20023;-43
2022/07/01 02:33:39;;;;;;;26.65;18.52;;;;;;;14.31;100.00;101422.34;4976851;28;20049;-42
2022/07/01 02:36:04;;;;;;;26.15;18.15;;;;;;;14.14;100.00;101440.06;4976578;28;20023;-41
2022/07/01 02:38:29;;;;;;;28.95;18.35;;;;;;;14.16;100.00;101436.28;4976897;28;20088;-42
2022/07/01 02:40:55;;;;;;;24.30;17.60;;;;;;;14.16;100.00;101427.69;4977016;28;20100;-42
2022/07/01 02:43:20;;;;;;;26.40;16.92;;;;;;;14.28;100.00;101436.53;4976901;28;20073;-42
2022/07/01 02:45:45;;;;;;;25.02;17.83;;;;;;;14.26;100.00;101446.31;4976401;28;20093;-43
2022/07/01 02:48:11;;;;;;;28.17;17.98;;;;;;;14.14;100.00;101448.66;4975029;28;20033;-42
2022/07/01 02:50:36;;;;;;;29.23;18.17;;;;;;;14.10;100.00;101449.25;4975063;28;20031;-43
2022/07/01 02:53:02;;;;;;;27.85;17.98;;;;;;;14.09;100.00;101460.63;4976466;28;20093;-43
2022/07/01 02:55:29;;;;;;;26.75;17.42;;;;;;;14.16;100.00;101464.06;4976197;28;20026;-43
2022/07/01 02:57:54;;;;;;;25.67;18.15;;;;;;;14.04;100.00;101465.59;4976518;28;20030;-42
2022/07/01 03:00:20;;;;;;;31.58;17.65;;;;;;;13.98;100.00;101464.56;4976071;28;20078;-43
2022/07/01 03:02:46;;;;;;;29.83;17.88;;;;;;;13.84;100.00;101455.94;4974804;28;20441;-43
2022/07/01 03:05:11;;;;;;;26.88;17.65;;;;;;;13.90;100.00;101429.19;4976162;28;20030;-41
2022/07/01 03:07:37;;;;;;;25.75;17.17;;;;;;;13.89;100.00;101411.16;4975919;28;20030;-42
2022/07/01 03:10:04;;;;;;;22.10;16.02;;;;;;;13.83;100.00;101425.72;4976160;28;20041;-41
2022/07/01 03:12:34;;;;;;;26.08;17.25;;;;;;;13.89;100.00;101434.56;4976500;28;20520;-42
2022/07/01 03:15:05;;;;;;;26.88;17.15;;;;;;;13.91;100.00;101425.56;4976130;28;20033;-41
2022/07/01 03:17:33;;;;;;;27.48;17.13;;;;;;;14.03;100.00;101433.63;4975723;28;20093;-42
2022/07/01 03:19:59;;;;;;;26.52;16.30;;;;;;;14.08;100.00;101430.44;4975704;28;20023;-42
2022/07/01 03:22:27;;;;;;;25.52;16.08;;;;;;;13.83;100.00;101423.13;4975751;28;20047;-42
2022/07/01 03:24:53;;;;;;;26.48;16.42;;;;;;;13.88;100.00;101417.38;4974437;28;20062;-42
2022/07/01 03:27:20;;;;;;;23.50;16.92;;;;;;;13.95;100.00;101406.03;4975522;28;20027;-43
2022/07/01 03:29:46;;;;;;;26.02;16.50;;;;;;;13.92;100.00;101421.19;4976074;28;20548;-42
2022/07/01 03:32:11;;;;;;;25.48;16.40;;;;;;;13.95;100.00;101413.81;4975472;28;20054;-43
2022/07/01 03:34:42;;;;;;;25.70;15.55;;;;;;;13.89;100.00;101418.97;4975867;28;20038;-42
2022/07/01 03:37:09;;;;;;;22.77;15.63;;;;;;;13.83;100.00;101423.13;4975430;28;20030;-42
2022/07/01 03:39:35;;;;;;;23.58;14.88;;;;;;;13.80;100.00;101422.72;4975350;28;20109;-43
2022/07/01 03:42:02;;;;;;;23.88;16.00;;;;;;;13.79;100.00;101426.31;4958107;28;20027;-41
2022/07/01 03:44:27;;;;;;;24.75;14.95;;;;;;;13.79;100.00;101427.13;4974093;28;20031;-44
2022/07/01 03:46:53;;;;;;;20.02;14.25;;;;;;;13.86;100.00;101430.53;4975244;28;20022;-42
2022/07/01 03:49:19;;;;;;;24.38;14.55;;;;;;;13.82;100.00;101426.72;4975169;28;20098;-42
2022/07/01 03:51:44;;;;;;;25.48;16.08;;;;;;;13.98;100.00;101434.22;4975523;28;20060;-43
2022/07/01 03:56:53;;;;;;;22.60;14.60;;;;;;;14.13;100.00;101448.88;4975147;28;20033;-43
2022/07/01 03:59:18;;;;;;;23.77;13.60;;;;;;;14.03;100.00;101457.00;4975114;28;20023;-42
2022/07/01 04:01:44;;;;;;;25.80;14.68;;;;;;;13.72;100.00;101463.47;4975055;28;20046;-41
2022/07/01 04:04:09;;;;;;;21.13;13.88;;;;;;;13.68;100.00;101471.81;4974985;28;20031;-40
2022/07/01 04:06:35;;;;;;;20.05;14.68;;;;;;;13.72;100.00;101478.22;4975466;28;20027;-42
2022/07/01 04:09:01;;;;;;;22.60;14.25;;;;;;;13.73;100.00;101470.25;4973877;28;20489;-42
2022/07/01 04:11:26;;;;;;;25.02;14.00;;;;;;;13.78;100.00;101474.84;4975511;28;20035;-41
2022/07/01 04:13:52;;;;;;;24.05;13.70;;;;;;;13.96;100.00;101488.16;4975094;28;20125;-42
2022/07/01 04:16:18;;;;;;;20.98;13.48;;;;;;;13.99;100.00;101490.38;4975344;28;20026;-43
2022/07/01 04:18:45;;;;;;;21.45;13.80;;;;;;;14.04;100.00;101481.19;4974043;28;20033;-43
2022/07/01 04:23:56;;;;;;;22.55;13.32;;;;;;;14.04;100.00;101482.03;4974734;28;20054;-43
2022/07/01 04:26:25;;;;;;;23.48;13.70;;;;;;;14.15;100.00;101491.84;4974783;28;20061;-43
2022/07/01 04:28:51;;;;;;;23.92;13.02;;;;;;;14.17;100.00;101492.47;4974862;28;20109;-42
2022/07/01 04:31:16;;;;;;;25.17;12.98;;;;;;;14.12;100.00;101492.22;4974887;28;20126;-43
2022/07/01 04:33:41;;;;;;;25.73;12.98;;;;;;;14.04;100.00;101496.78;4973580;28;20105;-42
2022/07/01 04:36:07;;;;;;;24.30;13.00;;;;;;;14.07;100.00;101499.00;4975147;28;20109;-42
2022/07/01 04:38:32;;;;;;;24.77;12.52;;;;;;;14.08;100.00;101505.81;4973243;28;20389;-43
2022/07/01 04:43:41;;;;;;;21.77;12.85;;;;;;;14.20;99.47;101510.25;4974512;28;20496;-43
2022/07/01 04:46:06;;;;;;;22.13;12.40;;;;;;;14.36;99.63;101511.75;4974501;28;20034;-42
2022/07/01 04:48:33;;;;;;;18.27;11.98;;;;;;;14.27;99.54;101507.72;4974753;28;20105;-43
2022/07/01 04:50:58;;;;;;;19.83;11.55;;;;;;;14.33;100.00;101506.16;4974687;28;20362;-42
2022/07/01 04:53:23;;;;;;;16.05;11.75;;;;;;;14.25;98.69;101482.91;4974403;28;20030;-43
2022/07/01 04:55:49;;;;;;;18.83;11.93;;;;;;;14.22;99.70;101495.28;4974716;28;20023;-42
2022/07/01 04:58:14;;;;;;;20.58;11.68;;;;;;;14.44;99.33;101492.56;4974629;28;20027;-42
2022/07/01 05:00:39;;;;;;;19.08;11.20;;;;;;;14.47;99.81;101496.56;4974298;28;20433;-42
2022/07/01 05:03:04;;;;;;;23.85;12.05;;;;;;;14.38;99.21;101488.13;4974580;28;20042;-42
2022/07/01 05:05:30;;;;;;;20.50;11.80;;;;;;;14.54;99.09;101506.03;4974630;28;20030;-42
2022/07/01 05:07:55;;;;;;;20.95;11.43;;;;;;;14.60;98.70;101499.25;4973594;28;20085;-41
2022/07/01 05:10:21;;;;;;;25.42;11.95;;;;;;;14.77;97.68;101508.31;4973070;28;20078;-41
2022/07/01 05:12:46;;;;;;;22.75;11.82;;;;;;;14.82;97.79;101505.13;4974688;28;20377;-42
2022/07/01 05:15:11;;;;;;;20.70;11.18;;;;;;;15.04;95.78;101509.13;4974769;28;20034;-42
2022/07/01 05:23:04;;;;;;;25.25;11.10;;;;;;;15.17;95.24;101516.19;4973973;28;20141;-43
2022/07/01 05:25:29;;;;;;;18.40;11.05;;;;;;;15.15;94.92;101515.56;4974067;28;20023;-43
2022/07/01 05:27:55;;;;;;;18.75;10.90;;;;;;;15.33;93.97;101512.38;4974379;28;20034;-43
2022/07/01 05:30:21;;;;;;;21.20;10.10;;;;;;;15.45;93.47;101517.78;4977209;28;20030;-41
2022/07/01 05:32:47;;;;;;;16.27;10.00;;;;;;;15.67;92.55;101524.38;4977660;28;20057;-43
2022/07/01 05:35:12;;;;;;;21.08;10.25;;;;;;;15.44;92.24;101510.97;4976278;28;20027;-43
2022/07/01 05:37:39;;;;;;;19.88;10.07;;;;;;;15.55;91.54;101518.19;4978122;28;20022;-42
2022/07/01 05:40:05;;;;;;;21.50;9.55;;;;;;;15.35;94.21;101526.00;4978185;28;20414;-42
2022/07/01 05:42:30;;;;;;;19.15;9.38;;;;;;;15.34;93.42;101524.41;4977725;28;20078;-42
2022/07/01 05:44:55;;;;;;;17.17;8.60;;;;;;;15.37;92.35;101518.78;4977690;28;20110;-42
2022/07/01 05:47:21;;;;;;;16.08;9.40;;;;;;;15.48;92.81;101512.19;4977801;28;20031;-41
2022/07/01 05:49:46;;;;;;;18.50;8.63;;;;;;;15.77;91.49;101516.19;4977956;28;20042;-42
2022/07/01 05:52:11;;;;;;;18.05;8.68;;;;;;;15.61;92.28;101525.19;4977590;28;20050;-41
2022/07/01 05:54:37;;;;;;;15.75;8.32;;;;;;;15.27;93.26;101521.78;4977275;28;20528;-41
2022/07/01 05:57:02;;;;;;;19.08;8.68;;;;;;;15.31;94.87;101523.00;4977611;28;20026;-42
2022/07/01 05:59:28;;;;;;;23.52;8.68;;;;;;;15.20;94.31;101517.59;4975977;28;20393;-42
2022/07/01 06:01:53;;;;;;;16.58;8.25;;;;;;;15.15;93.93;101522.59;4977420;28;20381;-41
2022/07/01 06:04:18;;;;;;;13.55;8.25;;;;;;;15.38;93.97;101517.00;4977386;28;20015;-41
2022/07/01 06:06:44;;;;;;;14.35;8.38;;;;;;;15.82;91.61;101512.97;4977327;28;20438;-42
2022/07/01 06:09:09;;;;;;;18.73;8.35;;;;;;;16.77;87.67;101519.22;4977114;28;20437;-42
2022/07/01 06:11:34;;;;;;;15.18;8.18;;;;;;;16.73;87.02;101519.84;4977709;28;20426;-42
2022/07/01 06:14:00;;;;;;;17.65;7.50;;;;;;;15.89;88.93;101505.94;4976959;28;20034;-47
2022/07/01 06:16:25;;;;;;;13.32;7.07;;;;;;;16.39;89.56;101506.16;4975463;28;20031;-42
2022/07/01 06:18:50;;;;;;;14.82;6.88;;;;;;;16.37;86.85;101513.38;4976599;28;20033;-42
2022/07/01 06:21:16;;;;;;;16.25;7.32;;;;;;;16.59;88.26;101506.06;4977316;28;20027;-43
2022/07/01 06:23:42;;;;;;;17.10;7.50;;;;;;;19.04;76.35;101512.47;4975973;28;20449;-42
2022/07/01 06:26:07;;;;;;;17.58;6.28;;;;;;;18.55;75.74;101507.31;4976420;28;20030;-42
2022/07/01 06:28:32;;;;;;;14.85;6.75;;;;;;;18.09;79.48;101515.75;4975127;28;20461;-42
2022/07/01 06:30:58;;;;;;;13.73;6.18;;;;;;;19.80;72.73;101522.13;4976397;28;20031;-42
2022/07/01 06:33:23;;;;;;;11.05;5.95;;;;;;;23.06;61.59;101523.72;4975538;28;20357;-44
2022/07/01 06:35:49;;;;;;;14.60;5.63;;;;;;;24.16;56.12;101510.56;4975418;28;20027;-41
2022/07/01 06:38:14;;;;;;;12.73;5.60;;;;;;;24.15;55.39;101516.13;4976825;28;20350;-42
2022/07/01 06:40:39;;;;;;;13.07;5.25;;;;;;;21.02;63.13;101508.88;4974272;28;20023;-42
2022/07/01 06:43:05;;;;;;;13.35;5.53;;;;;;;18.48;75.01;101517.88;4976440;28;20030;-42
2022/07/01 06:45:30;;;;;;;13.40;4.55;;;;;;;19.66;69.84;101509.47;4976721;28;20031;-43
2022/07/01 06:47:55;;;;;;;9.20;4.05;;;;;;;19.04;73.32;101508.03;4976337;28;20034;-41
2022/07/01 06:50:21;;;;;;;12.00;4.60;;;;;;;18.20;76.20;101504.53;4974965;28;20026;-42
2022/07/01 06:52:46;;;;;;;11.13;4.45;;;;;;;18.52;74.17;101513.00;4976242;28;20033;-43
2022/07/01 06:55:12;;;;;;;12.48;4.40;;;;;;;20.09;69.77;101511.69;4991163;28;20122;-42
2022/07/01 06:57:37;;;;;;;13.15;4.18;;;;;;;18.84;75.45;101502.31;4976452;28;20034;-43
2022/07/01 07:00:03;;;;;;;10.20;3.80;;;;;;;18.82;74.23;101507.00;4976475;28;20031;-41
2022/07/01 07:02:28;;;;;;;12.10;4.20;;;;;;;18.51;74.79;101511.41;4976373;28;20022;-42
2022/07/01 07:04:57;;;;;;;13.45;4.15;;;;;;;18.39;74.72;101506.13;4976092;28;20030;-42
2022/07/01 07:07:23;;;;;;;10.88;4.10;;;;;;;18.79;72.22;101517.88;4976665;28;20037;-41
2022/07/01 07:09:49;;;;;;;9.10;3.15;;;;;;;19.28;70.50;101503.63;4975970;28;20026;-42
2022/07/01 07:12:14;;;;;;;12.20;3.58;;;;;;;19.72;68.67;101519.84;4974724;28;20027;-41
2022/07/01 07:14:39;;;;;;;10.07;3.28;;;;;;;19.26;70.16;101526.66;4976037;28;20042;-42
2022/07/01 07:17:05;;;;;;;12.80;3.20;;;;;;;19.88;69.86;101538.50;4975835;28;20362;-42
2022/07/01 07:19:30;;;;;;;11.23;3.60;;;;;;;20.10;68.22;101538.72;4975971;28;20035;-41
2022/07/01 07:21:56;;;;;;;11.98;3.33;;;;;;;18.83;70.93;101521.66;4976079;28;20078;-42
2022/07/01 07:24:22;;;;;;;12.70;3.08;;;;;;;18.98;72.09;101539.56;4976186;28;20054;-44
2022/07/01 07:26:47;;;;;;;9.80;3.17;;;;;;;19.37;71.89;101546.03;4975641;28;20054;-42
2022/07/01 07:29:13;;;;;;;9.60;2.78;;;;;;;19.78;68.29;101549.59;4975896;28;20014;-42
2022/07/01 07:31:38;;;;;;;10.98;2.95;;;;;;;20.36;66.70;101555.75;4975497;28;20061;-40
2022/07/01 07:34:03;;;;;;;9.73;2.63;;;;;;;19.51;69.83;101550.03;4974201;28;20440;-42
2022/07/01 07:36:29;;;;;;;11.57;2.45;;;;;;;20.27;69.60;101561.38;4975623;28;20065;-43
2022/07/01 07:38:54;;;;;;;9.95;3.08;;;;;;;20.27;65.30;101564.00;4975464;28;20081;-42
2022/07/01 07:41:20;;;;;;;8.13;2.40;;;;;;;19.89;66.36;101575.00;4975390;28;20042;-41
2022/07/01 07:43:45;;;;;;;14.88;2.83;;;;;;;19.47;67.75;101585.56;4975416;28;20073;-41
2022/07/01 07:46:11;;;;;;;14.40;2.35;;;;;;;20.46;66.19;101577.75;4975320;28;20035;-43
2022/07/01 07:48:36;;;;;;;7.38;2.70;;;;;;;19.80;69.73;101564.06;4975354;28;20027;-41
2022/07/01 07:51:02;;;;;;;6.90;2.50;;;;;;;19.93;66.10;101557.78;4975583;28;20031;-44
2022/07/01 07:53:27;;;;;;;6.75;2.28;;;;;;;19.19;67.47;101549.53;4975340;28;20129;-41
2022/07/01 07:55:53;;;;;;;9.20;2.30;;;;;;;19.99;66.05;101556.84;4975254;28;20050;-42
2022/07/01 07:58:18;;;;;;;11.30;2.33;;;;;;;20.20;65.79;101568.59;4973891;28;20118;-43
2022/07/01 08:00:43;;;;;;;8.80;2.20;;;;;;;20.51;63.14;101556.03;4975427;28;20073;-40
2022/07/01 08:03:09;;;;;;;9.43;2.08;;;;;;;21.19;62.89;101555.13;4975062;28;20019;-44
2022/07/01 08:05:34;;;;;;;6.50;1.90;;;;;;;19.63;65.65;101572.84;4974159;28;20029;-42
2022/07/01 08:07:59;;;;;;;8.77;2.20;;;;;;;19.48;65.85;101566.22;4975448;28;20054;-42
2022/07/01 08:10:25;;;;;;;8.52;2.30;;;;;;;19.59;67.79;101573.28;4975693;28;20442;-42
2022/07/01 08:12:51;;;;;;;7.63;1.92;;;;;;;19.78;67.04;101573.97;4975357;28;20047;-43
2022/07/01 08:15:16;;;;;;;7.82;2.25;;;;;;;19.45;66.86;101576.34;4975082;28;20077;-42
2022/07/01 08:17:41;;;;;;;8.60;2.00;;;;;;;20.69;62.27;101569.03;4974837;28;20042;-42
2022/07/01 08:20:08;;;;;;;6.55;1.65;;;;;;;20.96;62.52;101571.84;4974513;28;20093;-42
2022/07/01 08:22:33;;;;;;;10.88;1.80;;;;;;;21.61;59.99;101572.38;4974753;28;20093;-43
2022/07/01 08:24:59;;;;;;;5.82;1.70;;;;;;;22.52;57.23;101583.25;4974972;28;20046;-42
2022/07/01 08:27:27;;;;;;;9.95;2.10;;;;;;;21.51;58.04;101582.72;4974940;28;20018;-42
2022/07/01 08:29:52;;;;;;;9.27;2.10;;;;;;;20.56;60.82;101592.13;4957738;28;20022;-41
2022/07/01 08:32:19;;;;;;;6.85;2.03;;;;;;;20.71;60.32;101585.34;4974621;28;20074;-41
2022/07/01 08:34:44;;;;;;;8.75;1.90;;;;;;;20.84;61.52;101589.50;4974766;28;20453;-42
2022/07/01 08:37:09;;;;;;;9.27;1.75;;;;;;;19.81;63.88;101604.19;4974707;28;20038;-43
2022/07/01 08:39:35;;;;;;;10.65;1.92;;;;;;;19.32;64.88;101604.34;4975006;28;20034;-42
2022/07/01 08:42:00;;;;;;;8.75;2.00;;;;;;;19.00;71.28;101600.41;4974501;28;20364;-45
2022/07/01 08:44:26;;;;;;;8.88;2.00;;;;;;;18.96;66.90;101600.06;4974781;28;20019;-42
2022/07/01 08:46:51;;;;;;;9.20;2.13;;;;;;;18.32;67.47;101612.66;4974585;28;20496;-42
2022/07/01 08:49:17;;;;;;;5.15;1.95;;;;;;;18.15;68.05;101606.41;4974544;28;20045;-42
2022/07/01 08:51:42;;;;;;;15.60;2.72;;;;;;;18.08;70.78;101603.06;4974763;28;20027;-41
2022/07/01 08:54:08;;;;;;;8.85;2.55;;;;;;;18.19;70.24;101624.06;4972691;28;20078;-40
2022/07/01 08:56:42;;;;;;;9.73;2.63;;;;;;;19.28;68.39;101620.75;4973614;28;20034;-41
2022/07/01 08:59:09;;;;;;;6.10;2.05;;;;;;;20.75;62.78;101629.53;4974158;28;20030;-42
2022/07/01 09:01:35;;;;;;;6.57;1.80;;;;;;;21.43;58.57;101633.09;4974415;28;20026;-42
2022/07/01 09:04:30;;;;;;;4.72;1.60;;;;;;;21.42;56.46;101621.78;4974755;28;20419;-42
2022/07/01 09:07:03;;;;;;;8.18;1.77;;;;;;;20.40;59.25;101631.19;4969760;28;20042;-43
2022/07/01 09:09:28;;;;;;;11.65;1.70;;;;;;;19.52;61.17;101632.09;4978151;28;20058;-41
2022/07/01 09:11:55;;;;;;;8.38;1.88;;;;;;;18.96;61.92;101641.13;4978711;28;20030;-42
2022/07/01 09:14:29;;;;;;;7.88;1.88;;;;;;;19.06;61.98;101650.06;4977886;28;20030;-42
2022/07/01 09:16:59;;;;;;;6.35;1.70;;;;;;;19.07;64.08;101649.03;4978075;28;20027;-41
2022/07/01 09:19:26;;;;;;;10.27;1.98;;;;;;;19.88;61.67;101643.41;4978220;28;20031;-41
2022/07/01 09:21:56;;;;;;;4.78;1.65;;;;;;;20.13;62.92;101646.63;4977706;28;20055;-41
2022/07/01 09:24:31;;;;;;;5.63;1.55;;;;;;;20.18;60.56;101641.47;4978024;28;20027;-40
2022/07/01 09:27:13;;;;;;;11.27;1.88;;;;;;;20.61;62.12;101639.50;4976831;28;20462;-41
2022/07/01 09:29:45;;;;;;;7.25;1.45;;;;;;;20.61;60.06;101642.13;4977005;28;20508;-42
2022/07/01 09:32:13;;;;;;;7.13;1.85;;;;;;;19.93;58.54;101651.41;4978256;28;20042;-44
2022/07/01 09:34:45;;;;;;;3.88;1.40;;;;;;;20.05;60.28;101646.94;4976299;28;20047;-43
2022/07/01 09:37:15;;;;;;;6.78;1.55;;;;;;;20.32;59.13;101639.41;4992216;28;20378;-42
2022/07/01 09:39:50;;;;;;;8.25;1.48;;;;;;;20.77;60.13;101653.72;4976808;28;20089;-41
2022/07/01 09:42:19;;;;;;;6.45;1.20;;;;;;;20.21;58.92;101664.63;4976357;28;20030;-41
2022/07/01 09:44:59;;;;;;;5.55;1.40;;;;;;;20.13;59.16;101657.09;4975762;28;20022;-41
2022/07/01 09:47:26;;;;;;;7.90;1.55;;;;;;;20.50;58.35;101648.97;4977283;28;20382;-40
2022/07/01 09:49:54;;;;;;;6.88;1.60;;;;;;;20.54;59.86;101657.19;4960725;28;20030;-42
2022/07/01 09:52:23;;;;;;;5.03;1.55;;;;;;;19.95;60.55;101654.63;4977592;28;20031;-41
2022/07/01 09:54:49;;;;;;;7.40;1.67;;;;;;;19.94;59.07;101664.31;4977048;28;20458;-41
2022/07/01 09:57:16;;;;;;;8.40;1.50;;;;;;;20.93;57.71;101658.22;4976621;28;20027;-42
2022/07/01 09:59:42;;;;;;;7.13;1.58;;;;;;;21.19;57.33;101654.22;4959617;28;20446;-42
2022/07/01 10:02:08;;;;;;;5.65;1.40;;;;;;;21.63;55.49;101649.97;4975954;28;20057;-43
2022/07/01 10:04:38;;;;;;;5.07;1.40;;;;;;;20.44;58.19;101661.19;4975981;28;20362;-42
2022/07/01 10:07:11;;;;;;;8.18;1.55;;;;;;;19.41;59.66;101661.69;4975922;28;20030;-41
2022/07/01 10:09:58;;;;;;;5.60;1.58;;;;;;;19.26;60.60;101667.34;4975961;28;20401;-41
2022/07/01 10:12:31;;;;;;;7.32;1.58;;;;;;;20.38;57.78;101666.56;4976024;28;20524;-42
2022/07/01 10:14:59;;;;;;;5.30;1.60;;;;;;;20.66;56.00;101661.41;4975120;28;20034;-41
2022/07/01 10:17:35;;;;;;;4.65;1.40;;;;;;;21.03;55.31;101665.50;4975538;28;20056;-43
2022/07/01 10:20:12;;;;;;;12.63;1.30;;;;;;;21.47;54.31;101660.50;4974435;28;20027;-41
2022/07/01 10:22:39;;;;;;;4.47;1.25;;;;;;;22.45;52.14;101659.03;4958553;28;20528;-44
2022/07/01 10:25:35;;;;;;;6.32;1.70;;;;;;;23.69;49.71;101655.78;4976947;28;20449;-42
2022/07/01 10:28:23;;;;;;;10.10;3.78;;;;;;;22.60;50.30;101658.41;4975432;28;20030;-41
2022/07/01 10:30:49;;;;;;;4.97;1.30;;;;;;;22.25;49.27;101669.31;4976546;28;20037;-41
2022/07/01 10:33:34;;;;;;;6.20;1.30;;;;;;;22.61;48.37;101675.03;4976641;28;20034;-43
2022/07/01 10:36:07;;;;;;;4.35;1.35;;;;;;;23.00;48.63;101669.69;4976634;28;20477;-42
2022/07/01 10:38:33;;;;;;;9.68;3.75;;;;;;;21.49;51.11;101674.19;4976987;28;20030;-43
2022/07/01 10:41:09;;;;;;;8.05;1.65;;;;;;;21.58;50.87;101678.84;4976880;28;20038;-42
2022/07/01 10:43:37;;;;;;;6.25;1.40;;;;;;;22.49;48.38;101668.03;4976666;28;20023;-43
2022/07/01 10:46:03;;;;;;;5.43;1.35;;;;;;;22.39;47.73;101665.28;4976681;28;20023;-41
2022/07/01 10:48:32;;;;;;;3.22;1.20;;;;;;;23.69;47.92;101674.25;4976300;28;20054;-41
2022/07/01 10:50:57;;;;;;;6.38;1.30;;;;;;;22.95;44.34;101660.66;4975153;28;20104;-42
2022/07/01 10:53:23;;;;;;;6.47;1.17;;;;;;;21.89;46.34;101670.63;4974743;28;20062;-43
2022/07/01 10:55:53;;;;;;;4.05;1.30;;;;;;;21.30;49.17;101681.50;4975742;28;20085;-41
2022/07/01 10:58:41;;;;;;;6.70;1.25;;;;;;;20.43;49.01;101671.94;4975411;28;20030;-43
2022/07/01 11:01:06;;;;;;;7.45;1.40;;;;;;;20.37;50.50;101689.41;4976038;28;20031;-42
2022/07/01 11:03:36;;;;;;;8.80;1.38;;;;;;;20.54;53.80;101694.75;4976426;28;20030;-43
2022/07/01 11:06:02;;;;;;;5.03;1.40;;;;;;;20.47;56.42;101692.22;4976161;28;20023;-42
2022/07/01 11:08:28;;;;;;;6.72;1.77;;;;;;;20.21;58.63;101695.34;4976393;28;20089;-42
2022/07/01 11:10:58;;;;;;;4.93;1.40;;;;;;;20.38;59.29;101701.50;4976005;28;20085;-43
2022/07/01 11:13:26;;;;;;;8.50;1.70;;;;;;;20.40;59.06;101696.81;4975678;28;20023;-43
2022/07/01 11:15:51;;;;;;;4.28;1.42;;;;;;;20.65;58.73;101695.75;4976035;28;20030;-43
2022/07/01 11:18:18;;;;;;;6.38;1.70;;;;;;;21.37;57.73;101687.41;4976111;28;20484;-42
2022/07/01 11:20:44;;;;;;;7.43;1.52;;;;;;;22.30;54.65;101698.34;4975792;28;20026;-41
2022/07/01 11:23:09;;;;;;;7.40;1.55;;;;;;;22.62;52.56;101689.81;4973794;28;20065;-42
2022/07/01 11:25:34;;;;;;;7.15;1.30;;;;;;;22.59;52.96;101687.66;4974715;28;20014;-42